sensor_id;sensor_type;location;lat;lon;timestamp;temperature;humidity
40153;DHT22;26371;56.992;23.912;2023-06-22T00:01:23;20.90;99.90
40153;DHT22;26371;56.992;23.912;2023-06-22T00:03:53;20.90;99.90
40153;DHT22;26371;56.992;23.912;2023-06-22T00:06:22;20.90;99.90
40153;DHT22;26371;56.992;23.912;2023-06-22T00:08:50;20.90;99.90
40153;DHT22;26371;56.992;23.912;2023-06-22T00:11:18;20.80;99.90
40153;DHT22;26371;56.992;23.912;2023-06-22T00:13:47;20.80;99.90
40153;DHT22;26371;56.992;23.912;2023-06-22T00:16:16;20.80;99.90
40153;DHT22;26371;56.992;23.912;2023-06-22T00:18:44;20.80;99.90
40153;DHT22;26371;56.992;23.912;2023-06-22T00:21:15;20.80;99.90
40153;DHT22;26371;56.992;23.912;2023-06-22T00:23:44;20.80;99.90
40153;DHT22;26371;56.992;23.912;2023-06-22T00:26:12;20.80;99.90
40153;DHT22;26371;56.992;23.912;2023-06-22T00:28:41;20.80;99.90
40153;DHT22;26371;56.992;23.912;2023-06-22T00:31:09;20.80;99.90
40153;DHT22;26371;56.992;23.912;2023-06-22T00:33:37;20.80;99.90
40153;DHT22;26371;56.992;23.912;2023-06-22T00:36:06;20.80;99.90
40153;DHT22;26371;56.992;23.912;2023-06-22T00:38:38;20.80;99.90
40153;DHT22;26371;56.992;23.912;2023-06-22T00:41:08;20.80;99.90
40153;DHT22;26371;56.992;23.912;2023-06-22T00:43:36;20.70;99.90
40153;DHT22;26371;56.992;23.912;2023-06-22T00:46:04;20.80;99.90
40153;DHT22;26371;56.992;23.912;2023-06-22T00:48:33;20.80;99.90
40153;DHT22;26371;56.992;23.912;2023-06-22T00:51:03;20.80;99.90
40153;DHT22;26371;56.992;23.912;2023-06-22T00:53:32;20.80;99.90
40153;DHT22;26371;56.992;23.912;2023-06-22T00:56:03;20.90;99.90
40153;DHT22;26371;56.992;23.912;2023-06-22T00:58:35;20.90;99.90
40153;DHT22;26371;56.992;23.912;2023-06-22T01:01:04;20.90;99.90
40153;DHT22;26371;56.992;23.912;2023-06-22T01:03:32;20.90;99.90
40153;DHT22;26371;56.992;23.912;2023-06-22T01:06:06;20.90;99.90
40153;DHT22;26371;56.992;23.912;2023-06-22T01:08:38;20.80;99.90
40153;DHT22;26371;56.992;23.912;2023-06-22T01:11:16;20.90;99.90
40153;DHT22;26371;56.992;23.912;2023-06-22T01:13:45;20.90;99.90
40153;DHT22;26371;56.992;23.912;2023-06-22T01:16:17;20.90;99.90
40153;DHT22;26371;56.992;23.912;2023-06-22T01:18:48;20.90;99.90
40153;DHT22;26371;56.992;23.912;2023-06-22T01:21:20;20.90;99.90
40153;DHT22;26371;56.992;23.912;2023-06-22T01:23:51;20.90;99.90
40153;DHT22;26371;56.992;23.912;2023-06-22T01:26:28;20.90;99.90
40153;DHT22;26371;56.992;23.912;2023-06-22T01:29:03;20.90;99.90
40153;DHT22;26371;56.992;23.912;2023-06-22T01:31:32;20.90;99.90
40153;DHT22;26371;56.992;23.912;2023-06-22T01:34:03;20.90;99.90
40153;DHT22;26371;56.992;23.912;2023-06-22T01:36:35;20.90;99.90
40153;DHT22;26371;56.992;23.912;2023-06-22T01:39:03;20.90;99.90
40153;DHT22;26371;56.992;23.912;2023-06-22T01:41:33;21.00;99.90
40153;DHT22;26371;56.992;23.912;2023-06-22T01:44:04;20.90;99.90
40153;DHT22;26371;56.992;23.912;2023-06-22T01:46:34;20.90;99.90
40153;DHT22;26371;56.992;23.912;2023-06-22T01:49:03;20.90;99.90
40153;DHT22;26371;56.992;23.912;2023-06-22T01:51:32;20.90;99.90
40153;DHT22;26371;56.992;23.912;2023-06-22T01:54:01;20.90;99.90
40153;DHT22;26371;56.992;23.912;2023-06-22T01:56:29;20.80;99.90
40153;DHT22;26371;56.992;23.912;2023-06-22T01:59:00;20.90;99.90
40153;DHT22;26371;56.992;23.912;2023-06-22T02:01:31;20.90;99.90
40153;DHT22;26371;56.992;23.912;2023-06-22T02:04:06;20.90;99.90
40153;DHT22;26371;56.992;23.912;2023-06-22T02:06:39;20.90;99.90
40153;DHT22;26371;56.992;23.912;2023-06-22T02:09:11;20.80;99.90
40153;DHT22;26371;56.992;23.912;2023-06-22T02:11:41;20.90;99.90
40153;DHT22;26371;56.992;23.912;2023-06-22T02:14:10;20.90;99.90
40153;DHT22;26371;56.992;23.912;2023-06-22T02:16:40;20.90;99.90
40153;DHT22;26371;56.992;23.912;2023-06-22T02:19:09;20.90;99.90
40153;DHT22;26371;56.992;23.912;2023-06-22T02:21:37;20.90;99.90
40153;DHT22;26371;56.992;23.912;2023-06-22T02:24:06;20.90;99.90
40153;DHT22;26371;56.992;23.912;2023-06-22T02:26:34;20.90;99.90
40153;DHT22;26371;56.992;23.912;2023-06-22T02:29:03;20.90;99.90
40153;DHT22;26371;56.992;23.912;2023-06-22T02:31:51;20.90;99.90
40153;DHT22;26371;56.992;23.912;2023-06-22T02:34:20;20.90;99.90
40153;DHT22;26371;56.992;23.912;2023-06-22T02:36:50;20.80;99.90
40153;DHT22;26371;56.992;23.912;2023-06-22T02:39:19;20.80;99.90
40153;DHT22;26371;56.992;23.912;2023-06-22T02:41:49;20.80;99.90
40153;DHT22;26371;56.992;23.912;2023-06-22T02:44:17;20.80;99.90
40153;DHT22;26371;56.992;23.912;2023-06-22T02:46:47;20.70;99.90
40153;DHT22;26371;56.992;23.912;2023-06-22T02:49:18;20.70;99.90
40153;DHT22;26371;56.992;23.912;2023-06-22T02:51:47;20.70;99.90
40153;DHT22;26371;56.992;23.912;2023-06-22T02:54:18;20.70;99.90
40153;DHT22;26371;56.992;23.912;2023-06-22T02:56:57;20.70;99.90
40153;DHT22;26371;56.992;23.912;2023-06-22T02:59:32;20.70;99.90
40153;DHT22;26371;56.992;23.912;2023-06-22T03:02:10;20.70;99.90
40153;DHT22;26371;56.992;23.912;2023-06-22T03:04:44;20.70;99.90
40153;DHT22;26371;56.992;23.912;2023-06-22T03:07:16;20.70;99.90
40153;DHT22;26371;56.992;23.912;2023-06-22T03:09:46;20.80;99.90
40153;DHT22;26371;56.992;23.912;2023-06-22T03:12:14;20.80;99.90
40153;DHT22;26371;56.992;23.912;2023-06-22T03:14:50;20.80;99.90
40153;DHT22;26371;56.992;23.912;2023-06-22T03:17:18;20.90;99.90
40153;DHT22;26371;56.992;23.912;2023-06-22T03:19:49;20.80;99.90
40153;DHT22;26371;56.992;23.912;2023-06-22T03:22:17;20.80;99.90
40153;DHT22;26371;56.992;23.912;2023-06-22T03:24:50;20.90;99.90
40153;DHT22;26371;56.992;23.912;2023-06-22T03:27:21;20.90;99.90
40153;DHT22;26371;56.992;23.912;2023-06-22T03:29:50;20.90;99.90
40153;DHT22;26371;56.992;23.912;2023-06-22T03:32:18;21.00;99.90
40153;DHT22;26371;56.992;23.912;2023-06-22T03:34:48;21.00;99.90
40153;DHT22;26371;56.992;23.912;2023-06-22T03:37:16;21.00;99.90
40153;DHT22;26371;56.992;23.912;2023-06-22T03:39:45;21.00;99.90
40153;DHT22;26371;56.992;23.912;2023-06-22T03:42:15;21.10;99.90
40153;DHT22;26371;56.992;23.912;2023-06-22T03:44:45;21.10;99.90
40153;DHT22;26371;56.992;23.912;2023-06-22T03:47:13;21.10;99.90
40153;DHT22;26371;56.992;23.912;2023-06-22T03:49:41;21.10;99.90
40153;DHT22;26371;56.992;23.912;2023-06-22T03:52:11;21.10;99.90
40153;DHT22;26371;56.992;23.912;2023-06-22T03:54:39;21.10;99.90
40153;DHT22;26371;56.992;23.912;2023-06-22T03:57:08;21.10;99.90
40153;DHT22;26371;56.992;23.912;2023-06-22T03:59:38;21.10;99.90
40153;DHT22;26371;56.992;23.912;2023-06-22T04:02:06;21.10;99.90
40153;DHT22;26371;56.992;23.912;2023-06-22T04:04:35;21.10;99.90
40153;DHT22;26371;56.992;23.912;2023-06-22T04:07:03;21.10;99.90
40153;DHT22;26371;56.992;23.912;2023-06-22T04:09:33;21.10;99.90
40153;DHT22;26371;56.992;23.912;2023-06-22T04:12:02;21.20;99.90
40153;DHT22;26371;56.992;23.912;2023-06-22T04:14:31;21.20;99.90
40153;DHT22;26371;56.992;23.912;2023-06-22T04:16:59;21.20;99.90
40153;DHT22;26371;56.992;23.912;2023-06-22T04:19:27;21.20;99.90
40153;DHT22;26371;56.992;23.912;2023-06-22T04:21:56;21.20;99.90
40153;DHT22;26371;56.992;23.912;2023-06-22T04:24:24;21.30;99.90
40153;DHT22;26371;56.992;23.912;2023-06-22T04:26:54;21.20;99.90
40153;DHT22;26371;56.992;23.912;2023-06-22T04:29:22;21.20;99.90
40153;DHT22;26371;56.992;23.912;2023-06-22T04:31:56;21.20;99.90
40153;DHT22;26371;56.992;23.912;2023-06-22T04:34:25;21.20;99.90
40153;DHT22;26371;56.992;23.912;2023-06-22T04:36:54;21.10;99.90
40153;DHT22;26371;56.992;23.912;2023-06-22T04:39:22;21.10;99.90
40153;DHT22;26371;56.992;23.912;2023-06-22T04:41:51;21.10;99.90
40153;DHT22;26371;56.992;23.912;2023-06-22T04:44:21;21.10;99.90
40153;DHT22;26371;56.992;23.912;2023-06-22T04:46:52;21.10;99.90
40153;DHT22;26371;56.992;23.912;2023-06-22T04:49:27;21.10;99.90
40153;DHT22;26371;56.992;23.912;2023-06-22T04:52:00;21.10;99.90
40153;DHT22;26371;56.992;23.912;2023-06-22T04:54:28;21.00;99.90
40153;DHT22;26371;56.992;23.912;2023-06-22T04:56:59;21.00;99.90
40153;DHT22;26371;56.992;23.912;2023-06-22T04:59:30;21.10;99.90
40153;DHT22;26371;56.992;23.912;2023-06-22T05:01:59;21.10;99.90
40153;DHT22;26371;56.992;23.912;2023-06-22T05:04:28;21.10;99.90
40153;DHT22;26371;56.992;23.912;2023-06-22T05:06:59;21.10;99.90
40153;DHT22;26371;56.992;23.912;2023-06-22T05:09:27;21.10;99.90
40153;DHT22;26371;56.992;23.912;2023-06-22T05:11:56;21.20;99.90
40153;DHT22;26371;56.992;23.912;2023-06-22T05:14:24;21.20;99.90
40153;DHT22;26371;56.992;23.912;2023-06-22T05:16:54;21.10;99.90
40153;DHT22;26371;56.992;23.912;2023-06-22T05:19:25;21.10;99.90
40153;DHT22;26371;56.992;23.912;2023-06-22T05:21:58;20.90;99.90
40153;DHT22;26371;56.992;23.912;2023-06-22T05:24:26;20.90;99.90
40153;DHT22;26371;56.992;23.912;2023-06-22T05:26:55;20.80;99.90
40153;DHT22;26371;56.992;23.912;2023-06-22T05:29:23;20.70;99.90
40153;DHT22;26371;56.992;23.912;2023-06-22T05:31:55;20.60;99.90
40153;DHT22;26371;56.992;23.912;2023-06-22T05:34:23;20.60;99.90
40153;DHT22;26371;56.992;23.912;2023-06-22T05:36:51;20.60;99.90
40153;DHT22;26371;56.992;23.912;2023-06-22T05:39:20;20.60;99.90
40153;DHT22;26371;56.992;23.912;2023-06-22T05:41:48;20.60;99.90
40153;DHT22;26371;56.992;23.912;2023-06-22T05:44:16;20.50;99.90
40153;DHT22;26371;56.992;23.912;2023-06-22T05:46:45;20.50;99.90
40153;DHT22;26371;56.992;23.912;2023-06-22T05:49:16;20.40;99.90
40153;DHT22;26371;56.992;23.912;2023-06-22T05:51:45;20.30;99.90
40153;DHT22;26371;56.992;23.912;2023-06-22T06:14:18;19.90;99.90
40153;DHT22;26371;56.992;23.912;2023-06-22T06:16:47;19.90;99.90
40153;DHT22;26371;56.992;23.912;2023-06-22T06:19:16;19.90;99.90
40153;DHT22;26371;56.992;23.912;2023-06-22T12:30:29;22.00;99.90
40153;DHT22;26371;56.992;23.912;2023-06-22T12:32:58;22.20;99.90
40153;DHT22;26371;56.992;23.912;2023-06-22T12:35:31;22.20;99.90
40153;DHT22;26371;56.992;23.912;2023-06-22T12:38:00;22.20;99.90
40153;DHT22;26371;56.992;23.912;2023-06-22T12:40:28;22.20;99.90
40153;DHT22;26371;56.992;23.912;2023-06-22T12:42:57;22.30;99.90
40153;DHT22;26371;56.992;23.912;2023-06-22T12:45:25;22.30;99.90
40153;DHT22;26371;56.992;23.912;2023-06-22T12:47:57;22.30;99.90
40153;DHT22;26371;56.992;23.912;2023-06-22T12:50:26;22.40;99.90
40153;DHT22;26371;56.992;23.912;2023-06-22T12:52:55;22.40;99.90
40153;DHT22;26371;56.992;23.912;2023-06-22T12:55:23;22.40;99.90
40153;DHT22;26371;56.992;23.912;2023-06-22T12:57:52;22.30;99.90
40153;DHT22;26371;56.992;23.912;2023-06-22T13:00:21;22.20;99.90
40153;DHT22;26371;56.992;23.912;2023-06-22T13:02:49;22.30;99.90
40153;DHT22;26371;56.992;23.912;2023-06-22T13:05:21;22.30;99.90
40153;DHT22;26371;56.992;23.912;2023-06-22T13:07:50;22.30;99.90
40153;DHT22;26371;56.992;23.912;2023-06-22T13:10:18;22.40;99.90
40153;DHT22;26371;56.992;23.912;2023-06-22T13:12:47;22.50;99.90
40153;DHT22;26371;56.992;23.912;2023-06-22T13:15:16;22.60;99.90
40153;DHT22;26371;56.992;23.912;2023-06-22T13:17:44;22.60;99.90
40153;DHT22;26371;56.992;23.912;2023-06-22T13:20:13;22.60;99.90
40153;DHT22;26371;56.992;23.912;2023-06-22T13:22:43;22.70;99.90
40153;DHT22;26371;56.992;23.912;2023-06-22T13:25:11;22.80;99.90
40153;DHT22;26371;56.992;23.912;2023-06-22T13:27:40;23.00;99.90
40153;DHT22;26371;56.992;23.912;2023-06-22T13:30:09;23.00;99.90
40153;DHT22;26371;56.992;23.912;2023-06-22T17:03:56;21.40;99.90
40153;DHT22;26371;56.992;23.912;2023-06-22T17:06:27;21.50;99.90
40153;DHT22;26371;56.992;23.912;2023-06-22T17:08:59;21.40;99.90
40153;DHT22;26371;56.992;23.912;2023-06-22T17:11:29;21.40;99.90
40153;DHT22;26371;56.992;23.912;2023-06-22T17:13:57;21.40;99.90
40153;DHT22;26371;56.992;23.912;2023-06-22T17:16:25;21.40;99.90
40153;DHT22;26371;56.992;23.912;2023-06-22T17:18:58;21.30;99.90
40153;DHT22;26371;56.992;23.912;2023-06-22T17:21:30;21.30;99.90
40153;DHT22;26371;56.992;23.912;2023-06-22T17:24:00;21.30;99.90
40153;DHT22;26371;56.992;23.912;2023-06-22T17:26:29;21.20;99.90
40153;DHT22;26371;56.992;23.912;2023-06-22T17:28:58;21.10;99.90
40153;DHT22;26371;56.992;23.912;2023-06-22T17:31:35;21.10;99.90
40153;DHT22;26371;56.992;23.912;2023-06-22T17:34:09;20.90;99.90
40153;DHT22;26371;56.992;23.912;2023-06-22T17:36:41;20.90;99.90
40153;DHT22;26371;56.992;23.912;2023-06-22T17:39:11;20.80;99.90
40153;DHT22;26371;56.992;23.912;2023-06-22T17:41:42;20.70;99.90
40153;DHT22;26371;56.992;23.912;2023-06-22T17:44:10;20.60;99.90
40153;DHT22;26371;56.992;23.912;2023-06-22T17:46:41;20.60;99.90
40153;DHT22;26371;56.992;23.912;2023-06-22T17:49:11;20.60;99.90
40153;DHT22;26371;56.992;23.912;2023-06-22T17:51:42;20.50;99.90
40153;DHT22;26371;56.992;23.912;2023-06-22T17:54:10;20.60;99.90
40153;DHT22;26371;56.992;23.912;2023-06-22T17:56:39;20.60;99.90
40153;DHT22;26371;56.992;23.912;2023-06-22T17:59:07;20.60;99.90
40153;DHT22;26371;56.992;23.912;2023-06-22T18:01:36;20.60;99.90
40153;DHT22;26371;56.992;23.912;2023-06-22T18:04:05;20.60;99.90
40153;DHT22;26371;56.992;23.912;2023-06-22T18:06:39;20.60;99.90
40153;DHT22;26371;56.992;23.912;2023-06-22T18:09:10;20.60;99.90
40153;DHT22;26371;56.992;23.912;2023-06-22T18:11:41;20.60;99.90
40153;DHT22;26371;56.992;23.912;2023-06-22T18:14:13;20.60;99.90
40153;DHT22;26371;56.992;23.912;2023-06-22T18:16:43;20.60;99.90
40153;DHT22;26371;56.992;23.912;2023-06-22T18:19:12;20.50;99.90
40153;DHT22;26371;56.992;23.912;2023-06-22T18:21:44;20.50;99.90
40153;DHT22;26371;56.992;23.912;2023-06-22T18:24:13;20.40;99.90
40153;DHT22;26371;56.992;23.912;2023-06-22T18:26:42;20.30;99.90
40153;DHT22;26371;56.992;23.912;2023-06-22T18:29:11;20.30;99.90
40153;DHT22;26371;56.992;23.912;2023-06-22T18:31:40;20.20;99.90
40153;DHT22;26371;56.992;23.912;2023-06-22T18:34:09;20.10;99.90
40153;DHT22;26371;56.992;23.912;2023-06-22T18:36:38;20.10;99.90
40153;DHT22;26371;56.992;23.912;2023-06-22T18:39:09;20.00;99.90
40153;DHT22;26371;56.992;23.912;2023-06-22T18:41:38;20.00;99.90
40153;DHT22;26371;56.992;23.912;2023-06-22T18:44:10;19.90;99.90
40153;DHT22;26371;56.992;23.912;2023-06-22T18:46:39;19.90;99.90
40153;DHT22;26371;56.992;23.912;2023-06-22T18:49:10;19.90;99.90
40153;DHT22;26371;56.992;23.912;2023-06-22T18:51:49;19.80;99.90
40153;DHT22;26371;56.992;23.912;2023-06-22T18:54:29;19.80;99.90
40153;DHT22;26371;56.992;23.912;2023-06-22T18:56:57;19.70;99.90
40153;DHT22;26371;56.992;23.912;2023-06-22T19:05:37;19.60;99.90
40153;DHT22;26371;56.992;23.912;2023-06-22T19:08:06;19.60;99.90
40153;DHT22;26371;56.992;23.912;2023-06-22T19:10:42;19.50;99.90
40153;DHT22;26371;56.992;23.912;2023-06-22T19:13:25;19.50;99.90
40153;DHT22;26371;56.992;23.912;2023-06-22T19:15:54;19.40;99.90
40153;DHT22;26371;56.992;23.912;2023-06-22T19:18:29;19.40;99.90
40153;DHT22;26371;56.992;23.912;2023-06-22T19:21:01;19.40;99.90
40153;DHT22;26371;56.992;23.912;2023-06-22T19:23:30;19.30;99.90
40153;DHT22;26371;56.992;23.912;2023-06-22T19:26:02;19.30;99.90
40153;DHT22;26371;56.992;23.912;2023-06-22T19:28:31;19.30;99.90
40153;DHT22;26371;56.992;23.912;2023-06-22T19:31:00;19.20;99.90
40153;DHT22;26371;56.992;23.912;2023-06-22T19:33:28;19.20;99.90
40153;DHT22;26371;56.992;23.912;2023-06-22T19:35:58;19.10;99.90
40153;DHT22;26371;56.992;23.912;2023-06-22T19:38:28;19.10;99.90
40153;DHT22;26371;56.992;23.912;2023-06-22T19:40:57;19.10;99.90
40153;DHT22;26371;56.992;23.912;2023-06-22T19:43:28;19.00;99.90
40153;DHT22;26371;56.992;23.912;2023-06-22T19:45:57;19.00;99.90
40153;DHT22;26371;56.992;23.912;2023-06-22T19:48:27;18.90;99.90
40153;DHT22;26371;56.992;23.912;2023-06-22T19:51:01;18.90;99.90
40153;DHT22;26371;56.992;23.912;2023-06-22T23:17:00;16.60;99.90
40153;DHT22;26371;56.992;23.912;2023-06-22T23:19:30;16.70;99.90
40153;DHT22;26371;56.992;23.912;2023-06-22T23:22:00;16.60;99.90
40153;DHT22;26371;56.992;23.912;2023-06-22T23:24:29;16.20;99.90
40153;DHT22;26371;56.992;23.912;2023-06-22T23:26:58;16.50;99.90
40153;DHT22;26371;56.992;23.912;2023-06-22T23:29:26;16.40;99.90
40153;DHT22;26371;56.992;23.912;2023-06-22T23:31:54;16.40;99.90
40153;DHT22;26371;56.992;23.912;2023-06-22T23:34:25;16.40;99.90
40153;DHT22;26371;56.992;23.912;2023-06-22T23:36:54;16.40;99.90
40153;DHT22;26371;56.992;23.912;2023-06-22T23:39:22;16.30;99.90
40153;DHT22;26371;56.992;23.912;2023-06-22T23:41:51;16.30;99.90
40153;DHT22;26371;56.992;23.912;2023-06-22T23:49:20;16.30;99.90
40153;DHT22;26371;56.992;23.912;2023-06-22T23:51:50;16.10;99.90
40153;DHT22;26371;56.992;23.912;2023-06-22T23:54:18;16.10;99.90
40153;DHT22;26371;56.992;23.912;2023-06-22T23:56:49;16.10;99.90
40153;DHT22;26371;56.992;23.912;2023-06-22T23:59:18;16.10;99.90
